Ana Sayfa
METAR-TAF:

METAR-TAF

Havaalanları :

Hagerstown, Maryland, Amerika Birleşik Devletleri

Enlem: 39-42-21N, Boylam: 077-43-48W, yükseklik: 214 m

Güncel hava durumu gözlemi

Rapor saat 04:53 UTC de 26 dakika önce yapıldı.
Rüzgar kuzeybatıdan 11 kt
Sıcaklık 9°C
Nem 43%
Basınç 1011 hPa
Görüş mesafesi: 16.1 km
Açık gökyüzü

METAR: KHGR 030453Z AUTO 31011KT 10SM CLR 09/M03 A2986 RMK AO2 SLP124 T00891028 401610028

Saat: 01:19 (05:19 UTC)


TAF: eksik

4.000'den fazla havaalanı için hava durumu gözlemleri ve tahminleri (METAR ve TAF raporları).

Kullanılabilir istasyonlar harita üzerinde sarı ve kırmızı noktalarla gösterilir.

İstasyonun adını görmek için fareyi noktanın üzerinde gezdirin.

Sonrasında hava gözlem ve tahminlerini görmek için tıklayın.

Haritayı değiştirmek için: yaklaştırmak için siyah artı işaretli yeşil düğmeye ve uzaklaştırmak için de eksi işaretli düğmeye hızla tıklayın; bitişik haritalar için yeşil okları kullanın.


METAR-TAF: